sensor_id;sensor_type;location;lat;lon;timestamp;temperature;humidity
58413;DHT22;44209;52.952;6.790;2023-08-31T00:02:13;11.60;99.90
58413;DHT22;44209;52.952;6.790;2023-08-31T00:04:38;11.60;99.90
58413;DHT22;44209;52.952;6.790;2023-08-31T00:07:05;11.60;99.90
58413;DHT22;44209;52.952;6.790;2023-08-31T00:09:32;11.60;99.90
58413;DHT22;44209;52.952;6.790;2023-08-31T00:11:58;11.60;99.90
58413;DHT22;44209;52.952;6.790;2023-08-31T00:14:24;11.60;99.90
58413;DHT22;44209;52.952;6.790;2023-08-31T00:16:52;11.50;99.90
58413;DHT22;44209;52.952;6.790;2023-08-31T00:19:17;11.50;99.90
58413;DHT22;44209;52.952;6.790;2023-08-31T00:21:43;11.50;99.90
58413;DHT22;44209;52.952;6.790;2023-08-31T00:24:09;11.50;99.90
58413;DHT22;44209;52.952;6.790;2023-08-31T00:26:38;11.50;99.90
58413;DHT22;44209;52.952;6.790;2023-08-31T00:29:07;11.50;99.90
58413;DHT22;44209;52.952;6.790;2023-08-31T00:31:33;11.50;99.90
58413;DHT22;44209;52.952;6.790;2023-08-31T00:33:59;11.50;99.90
58413;DHT22;44209;52.952;6.790;2023-08-31T00:36:31;11.50;99.90
58413;DHT22;44209;52.952;6.790;2023-08-31T00:38:57;11.60;99.90
58413;DHT22;44209;52.952;6.790;2023-08-31T00:41:23;11.60;99.90
58413;DHT22;44209;52.952;6.790;2023-08-31T00:43:49;11.60;99.90
58413;DHT22;44209;52.952;6.790;2023-08-31T00:46:15;11.60;99.90
58413;DHT22;44209;52.952;6.790;2023-08-31T00:48:40;11.60;99.90
58413;DHT22;44209;52.952;6.790;2023-08-31T00:51:07;11.60;99.90
58413;DHT22;44209;52.952;6.790;2023-08-31T00:53:34;11.60;99.90
58413;DHT22;44209;52.952;6.790;2023-08-31T00:56:00;11.60;99.90
58413;DHT22;44209;52.952;6.790;2023-08-31T00:58:26;11.60;99.90
58413;DHT22;44209;52.952;6.790;2023-08-31T01:00:58;11.60;99.90
58413;DHT22;44209;52.952;6.790;2023-08-31T01:06:12;11.60;99.90
58413;DHT22;44209;52.952;6.790;2023-08-31T01:08:50;11.50;99.90
58413;DHT22;44209;52.952;6.790;2023-08-31T01:11:24;11.50;99.90
58413;DHT22;44209;52.952;6.790;2023-08-31T01:14:17;11.50;99.90
58413;DHT22;44209;52.952;6.790;2023-08-31T01:16:48;11.40;99.90
58413;DHT22;44209;52.952;6.790;2023-08-31T01:21:59;11.40;99.90
58413;DHT22;44209;52.952;6.790;2023-08-31T01:24:26;11.40;99.90
58413;DHT22;44209;52.952;6.790;2023-08-31T01:26:53;11.40;99.90
58413;DHT22;44209;52.952;6.790;2023-08-31T01:29:19;11.40;99.90
58413;DHT22;44209;52.952;6.790;2023-08-31T01:31:45;11.30;99.90
58413;DHT22;44209;52.952;6.790;2023-08-31T01:34:11;11.30;99.90
58413;DHT22;44209;52.952;6.790;2023-08-31T01:36:41;11.30;99.90
58413;DHT22;44209;52.952;6.790;2023-08-31T01:39:26;11.30;99.90
58413;DHT22;44209;52.952;6.790;2023-08-31T01:42:01;11.30;99.90
58413;DHT22;44209;52.952;6.790;2023-08-31T01:44:31;11.30;99.90
58413;DHT22;44209;52.952;6.790;2023-08-31T01:47:05;11.20;99.90
58413;DHT22;44209;52.952;6.790;2023-08-31T01:49:38;11.20;99.90
58413;DHT22;44209;52.952;6.790;2023-08-31T01:52:05;11.20;99.90
58413;DHT22;44209;52.952;6.790;2023-08-31T01:54:31;11.20;99.90
58413;DHT22;44209;52.952;6.790;2023-08-31T01:56:57;11.20;99.90
58413;DHT22;44209;52.952;6.790;2023-08-31T01:59:22;11.10;99.90
58413;DHT22;44209;52.952;6.790;2023-08-31T02:01:48;11.10;99.90
58413;DHT22;44209;52.952;6.790;2023-08-31T02:04:14;11.10;99.90
58413;DHT22;44209;52.952;6.790;2023-08-31T02:06:40;11.10;99.90
58413;DHT22;44209;52.952;6.790;2023-08-31T02:09:06;11.10;99.90
58413;DHT22;44209;52.952;6.790;2023-08-31T02:11:32;11.10;99.90
58413;DHT22;44209;52.952;6.790;2023-08-31T02:14:01;11.10;99.90
58413;DHT22;44209;52.952;6.790;2023-08-31T02:16:27;11.00;99.90
58413;DHT22;44209;52.952;6.790;2023-08-31T02:18:53;11.00;99.90
58413;DHT22;44209;52.952;6.790;2023-08-31T02:21:19;11.00;99.90
58413;DHT22;44209;52.952;6.790;2023-08-31T02:23:45;11.00;99.90
58413;DHT22;44209;52.952;6.790;2023-08-31T02:26:11;11.00;99.90
58413;DHT22;44209;52.952;6.790;2023-08-31T02:28:37;10.90;99.90
58413;DHT22;44209;52.952;6.790;2023-08-31T02:31:03;10.90;99.90
58413;DHT22;44209;52.952;6.790;2023-08-31T02:33:29;10.90;99.90
58413;DHT22;44209;52.952;6.790;2023-08-31T02:35:55;10.90;99.90
58413;DHT22;44209;52.952;6.790;2023-08-31T02:38:21;11.00;99.90
58413;DHT22;44209;52.952;6.790;2023-08-31T02:40:47;10.90;99.90
58413;DHT22;44209;52.952;6.790;2023-08-31T02:43:13;10.90;99.90
58413;DHT22;44209;52.952;6.790;2023-08-31T02:45:39;10.90;99.90
58413;DHT22;44209;52.952;6.790;2023-08-31T02:48:08;10.90;99.90
58413;DHT22;44209;52.952;6.790;2023-08-31T02:50:34;11.00;99.90
58413;DHT22;44209;52.952;6.790;2023-08-31T02:53:00;10.90;99.90
58413;DHT22;44209;52.952;6.790;2023-08-31T02:55:26;10.90;99.90
58413;DHT22;44209;52.952;6.790;2023-08-31T02:57:52;10.90;99.90
58413;DHT22;44209;52.952;6.790;2023-08-31T03:00:18;10.90;99.90
58413;DHT22;44209;52.952;6.790;2023-08-31T03:02:50;10.90;99.90
58413;DHT22;44209;52.952;6.790;2023-08-31T03:05:18;10.90;99.90
58413;DHT22;44209;52.952;6.790;2023-08-31T03:07:44;10.90;99.90
58413;DHT22;44209;52.952;6.790;2023-08-31T03:10:09;10.90;99.90
58413;DHT22;44209;52.952;6.790;2023-08-31T03:12:36;10.90;99.90
58413;DHT22;44209;52.952;6.790;2023-08-31T03:15:02;10.90;99.90
58413;DHT22;44209;52.952;6.790;2023-08-31T03:17:28;10.90;99.90
58413;DHT22;44209;52.952;6.790;2023-08-31T03:19:53;10.80;99.90
58413;DHT22;44209;52.952;6.790;2023-08-31T03:22:19;10.80;99.90
58413;DHT22;44209;52.952;6.790;2023-08-31T03:24:45;10.80;99.90
58413;DHT22;44209;52.952;6.790;2023-08-31T03:27:11;10.80;99.90
58413;DHT22;44209;52.952;6.790;2023-08-31T03:29:36;10.80;99.90
58413;DHT22;44209;52.952;6.790;2023-08-31T03:32:02;10.80;99.90
58413;DHT22;44209;52.952;6.790;2023-08-31T03:34:29;10.80;99.90
58413;DHT22;44209;52.952;6.790;2023-08-31T03:36:56;10.80;99.90
58413;DHT22;44209;52.952;6.790;2023-08-31T03:39:21;10.80;99.90
58413;DHT22;44209;52.952;6.790;2023-08-31T03:41:47;10.80;99.90
58413;DHT22;44209;52.952;6.790;2023-08-31T03:44:13;10.80;99.90
58413;DHT22;44209;52.952;6.790;2023-08-31T03:46:39;10.80;99.90
58413;DHT22;44209;52.952;6.790;2023-08-31T03:49:04;10.80;99.90
58413;DHT22;44209;52.952;6.790;2023-08-31T03:51:30;10.90;99.90
58413;DHT22;44209;52.952;6.790;2023-08-31T03:53:56;10.90;99.90
58413;DHT22;44209;52.952;6.790;2023-08-31T03:56:22;10.90;99.90
58413;DHT22;44209;52.952;6.790;2023-08-31T03:58:48;11.00;99.90
58413;DHT22;44209;52.952;6.790;2023-08-31T04:01:14;10.90;99.90
58413;DHT22;44209;52.952;6.790;2023-08-31T04:03:42;11.00;99.90
58413;DHT22;44209;52.952;6.790;2023-08-31T04:06:08;11.00;99.90
58413;DHT22;44209;52.952;6.790;2023-08-31T04:08:34;11.00;99.90
58413;DHT22;44209;52.952;6.790;2023-08-31T04:10:59;11.00;99.90
58413;DHT22;44209;52.952;6.790;2023-08-31T04:13:25;11.00;99.90
58413;DHT22;44209;52.952;6.790;2023-08-31T04:15:52;11.00;99.90
58413;DHT22;44209;52.952;6.790;2023-08-31T04:18:18;11.10;99.90
58413;DHT22;44209;52.952;6.790;2023-08-31T04:20:52;11.10;99.90
58413;DHT22;44209;52.952;6.790;2023-08-31T04:23:18;11.10;99.90
58413;DHT22;44209;52.952;6.790;2023-08-31T04:25:45;11.10;99.90
58413;DHT22;44209;52.952;6.790;2023-08-31T04:28:11;11.10;99.90
58413;DHT22;44209;52.952;6.790;2023-08-31T04:30:37;11.10;99.90
58413;DHT22;44209;52.952;6.790;2023-08-31T04:33:03;11.10;99.90
58413;DHT22;44209;52.952;6.790;2023-08-31T04:35:30;11.20;99.90
58413;DHT22;44209;52.952;6.790;2023-08-31T04:37:57;11.20;99.90
58413;DHT22;44209;52.952;6.790;2023-08-31T04:40:23;11.20;99.90
58413;DHT22;44209;52.952;6.790;2023-08-31T04:42:50;11.20;99.90
58413;DHT22;44209;52.952;6.790;2023-08-31T04:45:16;11.20;99.90
58413;DHT22;44209;52.952;6.790;2023-08-31T04:47:42;11.20;99.90
58413;DHT22;44209;52.952;6.790;2023-08-31T04:50:08;11.20;99.90
58413;DHT22;44209;52.952;6.790;2023-08-31T04:52:34;11.20;99.90
58413;DHT22;44209;52.952;6.790;2023-08-31T04:55:05;11.20;99.90
58413;DHT22;44209;52.952;6.790;2023-08-31T04:57:33;11.20;99.90
58413;DHT22;44209;52.952;6.790;2023-08-31T04:59:59;11.20;99.90
58413;DHT22;44209;52.952;6.790;2023-08-31T05:02:24;11.20;99.90
58413;DHT22;44209;52.952;6.790;2023-08-31T05:04:51;11.20;99.90
58413;DHT22;44209;52.952;6.790;2023-08-31T05:07:16;11.20;99.90
58413;DHT22;44209;52.952;6.790;2023-08-31T05:09:42;11.20;99.90
58413;DHT22;44209;52.952;6.790;2023-08-31T05:12:08;11.20;99.90
58413;DHT22;44209;52.952;6.790;2023-08-31T05:14:34;11.10;99.90
58413;DHT22;44209;52.952;6.790;2023-08-31T05:17:03;11.10;99.90
58413;DHT22;44209;52.952;6.790;2023-08-31T05:19:30;11.10;99.90
58413;DHT22;44209;52.952;6.790;2023-08-31T05:21:56;11.10;99.90
58413;DHT22;44209;52.952;6.790;2023-08-31T05:24:22;11.20;99.90
58413;DHT22;44209;52.952;6.790;2023-08-31T05:26:49;11.10;99.90
58413;DHT22;44209;52.952;6.790;2023-08-31T05:29:15;11.20;99.90
58413;DHT22;44209;52.952;6.790;2023-08-31T05:31:41;11.20;99.90
58413;DHT22;44209;52.952;6.790;2023-08-31T05:34:09;11.20;99.90
58413;DHT22;44209;52.952;6.790;2023-08-31T05:36:34;11.20;99.90
58413;DHT22;44209;52.952;6.790;2023-08-31T05:39:00;11.20;99.90
58413;DHT22;44209;52.952;6.790;2023-08-31T05:41:26;11.20;99.90
58413;DHT22;44209;52.952;6.790;2023-08-31T05:43:52;11.30;99.90
58413;DHT22;44209;52.952;6.790;2023-08-31T05:46:18;11.30;99.90
58413;DHT22;44209;52.952;6.790;2023-08-31T05:48:43;11.40;99.90
58413;DHT22;44209;52.952;6.790;2023-08-31T05:51:09;11.40;99.90
58413;DHT22;44209;52.952;6.790;2023-08-31T05:53:35;11.40;99.90
58413;DHT22;44209;52.952;6.790;2023-08-31T05:56:01;11.50;99.90
58413;DHT22;44209;52.952;6.790;2023-08-31T05:58:31;11.60;99.90
58413;DHT22;44209;52.952;6.790;2023-08-31T06:00:57;11.60;99.90
58413;DHT22;44209;52.952;6.790;2023-08-31T06:03:22;11.70;99.90
58413;DHT22;44209;52.952;6.790;2023-08-31T06:05:48;11.70;99.90
58413;DHT22;44209;52.952;6.790;2023-08-31T06:08:14;11.80;99.90
58413;DHT22;44209;52.952;6.790;2023-08-31T06:10:39;11.90;99.90
58413;DHT22;44209;52.952;6.790;2023-08-31T06:13:05;11.90;99.90
58413;DHT22;44209;52.952;6.790;2023-08-31T06:15:31;11.90;99.90
58413;DHT22;44209;52.952;6.790;2023-08-31T06:17:57;12.00;99.90
58413;DHT22;44209;52.952;6.790;2023-08-31T06:20:22;12.10;99.90
58413;DHT22;44209;52.952;6.790;2023-08-31T06:22:49;12.10;99.90
58413;DHT22;44209;52.952;6.790;2023-08-31T06:25:14;12.20;99.90
58413;DHT22;44209;52.952;6.790;2023-08-31T06:27:42;12.30;99.90
58413;DHT22;44209;52.952;6.790;2023-08-31T06:30:09;12.30;99.90
58413;DHT22;44209;52.952;6.790;2023-08-31T06:32:37;12.40;99.90
58413;DHT22;44209;52.952;6.790;2023-08-31T06:35:03;12.50;99.90
58413;DHT22;44209;52.952;6.790;2023-08-31T06:37:29;12.60;99.90
58413;DHT22;44209;52.952;6.790;2023-08-31T06:39:55;12.70;99.90
58413;DHT22;44209;52.952;6.790;2023-08-31T06:42:20;12.80;99.90
58413;DHT22;44209;52.952;6.790;2023-08-31T06:44:46;12.80;99.90
58413;DHT22;44209;52.952;6.790;2023-08-31T06:47:12;12.90;99.90
58413;DHT22;44209;52.952;6.790;2023-08-31T06:49:39;13.00;99.90
58413;DHT22;44209;52.952;6.790;2023-08-31T06:52:05;13.00;99.90
58413;DHT22;44209;52.952;6.790;2023-08-31T06:54:33;13.10;99.90
58413;DHT22;44209;52.952;6.790;2023-08-31T06:56:59;13.10;99.90
58413;DHT22;44209;52.952;6.790;2023-08-31T06:59:25;13.20;99.90
58413;DHT22;44209;52.952;6.790;2023-08-31T07:01:50;13.30;99.90
58413;DHT22;44209;52.952;6.790;2023-08-31T07:04:16;13.40;99.90
58413;DHT22;44209;52.952;6.790;2023-08-31T07:06:42;13.40;99.90
58413;DHT22;44209;52.952;6.790;2023-08-31T07:09:08;13.50;99.90
58413;DHT22;44209;52.952;6.790;2023-08-31T07:11:34;13.60;99.90
58413;DHT22;44209;52.952;6.790;2023-08-31T07:14:00;13.70;99.90
58413;DHT22;44209;52.952;6.790;2023-08-31T07:16:26;13.70;99.90
58413;DHT22;44209;52.952;6.790;2023-08-31T07:18:51;13.80;99.90
58413;DHT22;44209;52.952;6.790;2023-08-31T07:21:17;13.90;99.90
58413;DHT22;44209;52.952;6.790;2023-08-31T07:23:43;14.00;99.90
58413;DHT22;44209;52.952;6.790;2023-08-31T07:26:09;14.10;99.90
58413;DHT22;44209;52.952;6.790;2023-08-31T07:28:34;14.10;99.90
58413;DHT22;44209;52.952;6.790;2023-08-31T07:31:01;14.20;99.90
58413;DHT22;44209;52.952;6.790;2023-08-31T07:33:29;14.30;99.90
58413;DHT22;44209;52.952;6.790;2023-08-31T07:35:56;14.30;99.90
58413;DHT22;44209;52.952;6.790;2023-08-31T07:38:21;14.40;99.90
58413;DHT22;44209;52.952;6.790;2023-08-31T07:40:47;14.50;99.90
58413;DHT22;44209;52.952;6.790;2023-08-31T07:43:13;14.60;99.90
58413;DHT22;44209;52.952;6.790;2023-08-31T07:45:39;14.70;99.90
58413;DHT22;44209;52.952;6.790;2023-08-31T07:48:05;14.80;99.90
58413;DHT22;44209;52.952;6.790;2023-08-31T07:50:33;14.90;99.90
58413;DHT22;44209;52.952;6.790;2023-08-31T07:53:00;15.00;99.90
58413;DHT22;44209;52.952;6.790;2023-08-31T07:55:25;15.10;99.90
58413;DHT22;44209;52.952;6.790;2023-08-31T07:57:51;15.10;99.90
58413;DHT22;44209;52.952;6.790;2023-08-31T08:00:17;15.30;99.90
58413;DHT22;44209;52.952;6.790;2023-08-31T08:02:45;15.30;99.90
58413;DHT22;44209;52.952;6.790;2023-08-31T08:05:11;15.40;99.90
58413;DHT22;44209;52.952;6.790;2023-08-31T08:07:37;15.50;99.90
58413;DHT22;44209;52.952;6.790;2023-08-31T08:10:03;15.60;99.90
58413;DHT22;44209;52.952;6.790;2023-08-31T08:12:39;15.70;99.90
58413;DHT22;44209;52.952;6.790;2023-08-31T08:15:06;15.70;99.90
58413;DHT22;44209;52.952;6.790;2023-08-31T08:17:35;15.90;99.90
58413;DHT22;44209;52.952;6.790;2023-08-31T08:20:03;16.00;99.90
58413;DHT22;44209;52.952;6.790;2023-08-31T08:22:29;15.90;99.90
58413;DHT22;44209;52.952;6.790;2023-08-31T08:25:00;15.90;99.90
58413;DHT22;44209;52.952;6.790;2023-08-31T08:27:26;15.80;99.90
58413;DHT22;44209;52.952;6.790;2023-08-31T08:29:52;15.90;99.90
58413;DHT22;44209;52.952;6.790;2023-08-31T08:32:18;16.00;99.90
58413;DHT22;44209;52.952;6.790;2023-08-31T08:34:43;16.00;99.90
58413;DHT22;44209;52.952;6.790;2023-08-31T08:37:09;16.10;99.90
58413;DHT22;44209;52.952;6.790;2023-08-31T08:39:35;16.10;99.90
58413;DHT22;44209;52.952;6.790;2023-08-31T08:42:04;16.20;99.90
58413;DHT22;44209;52.952;6.790;2023-08-31T08:44:33;16.20;99.90
58413;DHT22;44209;52.952;6.790;2023-08-31T08:47:01;16.10;99.90
58413;DHT22;44209;52.952;6.790;2023-08-31T08:49:28;16.10;99.90
58413;DHT22;44209;52.952;6.790;2023-08-31T08:51:55;16.20;99.90
58413;DHT22;44209;52.952;6.790;2023-08-31T08:54:22;16.40;99.90
58413;DHT22;44209;52.952;6.790;2023-08-31T08:56:48;16.60;99.90
58413;DHT22;44209;52.952;6.790;2023-08-31T08:59:14;16.60;99.90
58413;DHT22;44209;52.952;6.790;2023-08-31T09:01:40;16.70;99.90
58413;DHT22;44209;52.952;6.790;2023-08-31T09:04:06;16.70;99.90
58413;DHT22;44209;52.952;6.790;2023-08-31T09:06:32;16.80;99.90
58413;DHT22;44209;52.952;6.790;2023-08-31T09:08:58;16.90;99.90
58413;DHT22;44209;52.952;6.790;2023-08-31T09:11:24;17.10;99.90
58413;DHT22;44209;52.952;6.790;2023-08-31T09:13:51;17.20;99.90
58413;DHT22;44209;52.952;6.790;2023-08-31T09:16:27;17.30;99.90
58413;DHT22;44209;52.952;6.790;2023-08-31T09:18:57;17.40;99.90
58413;DHT22;44209;52.952;6.790;2023-08-31T09:21:44;17.50;99.90
58413;DHT22;44209;52.952;6.790;2023-08-31T09:24:11;17.30;99.90
58413;DHT22;44209;52.952;6.790;2023-08-31T09:27:00;17.20;99.90
58413;DHT22;44209;52.952;6.790;2023-08-31T09:29:25;17.00;99.90
58413;DHT22;44209;52.952;6.790;2023-08-31T09:31:51;16.90;99.90
58413;DHT22;44209;52.952;6.790;2023-08-31T09:34:17;16.90;99.90
58413;DHT22;44209;52.952;6.790;2023-08-31T09:36:44;17.10;99.90
58413;DHT22;44209;52.952;6.790;2023-08-31T09:39:10;17.10;99.90
58413;DHT22;44209;52.952;6.790;2023-08-31T09:41:53;17.20;99.90
58413;DHT22;44209;52.952;6.790;2023-08-31T09:44:20;17.10;99.90
58413;DHT22;44209;52.952;6.790;2023-08-31T09:46:46;17.10;99.90
58413;DHT22;44209;52.952;6.790;2023-08-31T09:49:16;17.00;99.90
58413;DHT22;44209;52.952;6.790;2023-08-31T09:51:45;16.90;99.90
58413;DHT22;44209;52.952;6.790;2023-08-31T09:54:17;16.70;99.90
58413;DHT22;44209;52.952;6.790;2023-08-31T09:56:45;16.50;99.90
58413;DHT22;44209;52.952;6.790;2023-08-31T09:59:13;16.30;99.90
58413;DHT22;44209;52.952;6.790;2023-08-31T10:01:44;16.00;99.90
58413;DHT22;44209;52.952;6.790;2023-08-31T10:04:10;15.90;99.90
58413;DHT22;44209;52.952;6.790;2023-08-31T10:06:41;15.70;99.90
58413;DHT22;44209;52.952;6.790;2023-08-31T10:09:08;15.70;99.90
58413;DHT22;44209;52.952;6.790;2023-08-31T10:11:35;15.60;99.90
58413;DHT22;44209;52.952;6.790;2023-08-31T10:14:03;15.70;99.90
58413;DHT22;44209;52.952;6.790;2023-08-31T10:16:29;15.70;99.90
58413;DHT22;44209;52.952;6.790;2023-08-31T10:18:56;15.80;99.90
58413;DHT22;44209;52.952;6.790;2023-08-31T10:21:22;16.10;99.90
58413;DHT22;44209;52.952;6.790;2023-08-31T10:23:49;16.40;99.90
58413;DHT22;44209;52.952;6.790;2023-08-31T10:26:29;16.60;99.90
58413;DHT22;44209;52.952;6.790;2023-08-31T10:28:57;16.90;99.90
58413;DHT22;44209;52.952;6.790;2023-08-31T10:31:23;17.00;99.90
58413;DHT22;44209;52.952;6.790;2023-08-31T10:36:35;17.50;99.90
58413;DHT22;44209;52.952;6.790;2023-08-31T10:39:15;17.70;99.90
58413;DHT22;44209;52.952;6.790;2023-08-31T10:41:42;17.90;99.90
58413;DHT22;44209;52.952;6.790;2023-08-31T10:44:25;18.00;99.90
58413;DHT22;44209;52.952;6.790;2023-08-31T10:46:52;18.10;99.90
58413;DHT22;44209;52.952;6.790;2023-08-31T10:49:22;18.10;99.90
58413;DHT22;44209;52.952;6.790;2023-08-31T10:51:56;18.30;99.90
58413;DHT22;44209;52.952;6.790;2023-08-31T10:54:23;18.50;99.90
58413;DHT22;44209;52.952;6.790;2023-08-31T10:59:26;18.80;99.90
58413;DHT22;44209;52.952;6.790;2023-08-31T11:02:06;18.80;99.90
58413;DHT22;44209;52.952;6.790;2023-08-31T11:04:55;18.70;99.90
58413;DHT22;44209;52.952;6.790;2023-08-31T11:07:25;18.50;99.90
58413;DHT22;44209;52.952;6.790;2023-08-31T11:09:51;18.30;99.90
58413;DHT22;44209;52.952;6.790;2023-08-31T11:12:17;18.10;99.90
58413;DHT22;44209;52.952;6.790;2023-08-31T11:14:43;18.00;99.90
58413;DHT22;44209;52.952;6.790;2023-08-31T11:17:09;18.10;99.90
58413;DHT22;44209;52.952;6.790;2023-08-31T11:19:37;18.30;99.90
58413;DHT22;44209;52.952;6.790;2023-08-31T11:22:03;18.40;99.90
58413;DHT22;44209;52.952;6.790;2023-08-31T11:24:33;18.60;99.90
58413;DHT22;44209;52.952;6.790;2023-08-31T11:26:59;18.70;99.90
58413;DHT22;44209;52.952;6.790;2023-08-31T11:29:25;18.90;99.90
58413;DHT22;44209;52.952;6.790;2023-08-31T11:31:51;18.90;99.90
58413;DHT22;44209;52.952;6.790;2023-08-31T11:34:17;19.10;99.90
58413;DHT22;44209;52.952;6.790;2023-08-31T11:36:45;19.20;99.90
58413;DHT22;44209;52.952;6.790;2023-08-31T11:39:14;19.30;99.90
58413;DHT22;44209;52.952;6.790;2023-08-31T11:41:42;19.20;99.90
58413;DHT22;44209;52.952;6.790;2023-08-31T11:44:12;19.30;99.90
58413;DHT22;44209;52.952;6.790;2023-08-31T11:46:42;19.20;99.90
58413;DHT22;44209;52.952;6.790;2023-08-31T11:49:08;19.20;99.90
58413;DHT22;44209;52.952;6.790;2023-08-31T11:51:34;19.20;99.90
58413;DHT22;44209;52.952;6.790;2023-08-31T11:54:01;19.00;99.90
58413;DHT22;44209;52.952;6.790;2023-08-31T11:56:41;19.00;99.90
58413;DHT22;44209;52.952;6.790;2023-08-31T11:59:11;18.80;99.90
58413;DHT22;44209;52.952;6.790;2023-08-31T12:01:45;18.60;99.90
58413;DHT22;44209;52.952;6.790;2023-08-31T12:04:17;18.40;99.90
58413;DHT22;44209;52.952;6.790;2023-08-31T12:06:50;18.20;99.90
58413;DHT22;44209;52.952;6.790;2023-08-31T12:09:16;18.10;99.90
58413;DHT22;44209;52.952;6.790;2023-08-31T12:11:42;18.10;99.90
58413;DHT22;44209;52.952;6.790;2023-08-31T12:14:25;18.30;99.90
58413;DHT22;44209;52.952;6.790;2023-08-31T12:16:52;18.50;99.90
58413;DHT22;44209;52.952;6.790;2023-08-31T12:19:18;18.60;99.90
58413;DHT22;44209;52.952;6.790;2023-08-31T12:21:46;18.90;99.90
58413;DHT22;44209;52.952;6.790;2023-08-31T12:24:12;19.00;99.90
58413;DHT22;44209;52.952;6.790;2023-08-31T12:26:40;19.10;99.90
58413;DHT22;44209;52.952;6.790;2023-08-31T12:29:06;19.10;99.90
58413;DHT22;44209;52.952;6.790;2023-08-31T12:31:32;19.20;99.90
58413;DHT22;44209;52.952;6.790;2023-08-31T12:33:58;19.40;99.90
58413;DHT22;44209;52.952;6.790;2023-08-31T12:36:25;19.50;99.90
58413;DHT22;44209;52.952;6.790;2023-08-31T12:38:51;19.40;99.90
58413;DHT22;44209;52.952;6.790;2023-08-31T12:41:17;19.20;99.90
58413;DHT22;44209;52.952;6.790;2023-08-31T12:43:43;19.00;99.90
58413;DHT22;44209;52.952;6.790;2023-08-31T12:46:09;18.70;99.90
58413;DHT22;44209;52.952;6.790;2023-08-31T12:48:35;18.50;99.90
58413;DHT22;44209;52.952;6.790;2023-08-31T12:51:01;18.30;99.90
58413;DHT22;44209;52.952;6.790;2023-08-31T12:53:27;18.20;99.90
58413;DHT22;44209;52.952;6.790;2023-08-31T12:55:53;18.00;99.90
58413;DHT22;44209;52.952;6.790;2023-08-31T12:58:19;17.80;99.90
58413;DHT22;44209;52.952;6.790;2023-08-31T13:00:47;17.60;99.90
58413;DHT22;44209;52.952;6.790;2023-08-31T13:03:14;17.40;99.90
58413;DHT22;44209;52.952;6.790;2023-08-31T13:05:40;17.10;99.90
58413;DHT22;44209;52.952;6.790;2023-08-31T13:08:09;16.80;99.90
58413;DHT22;44209;52.952;6.790;2023-08-31T13:10:35;16.60;99.90
58413;DHT22;44209;52.952;6.790;2023-08-31T13:13:01;16.40;99.90
58413;DHT22;44209;52.952;6.790;2023-08-31T13:15:26;16.40;99.90
58413;DHT22;44209;52.952;6.790;2023-08-31T13:17:52;16.30;99.90
58413;DHT22;44209;52.952;6.790;2023-08-31T13:20:18;16.20;99.90
58413;DHT22;44209;52.952;6.790;2023-08-31T13:22:44;16.20;99.90
58413;DHT22;44209;52.952;6.790;2023-08-31T13:25:10;16.20;99.90
58413;DHT22;44209;52.952;6.790;2023-08-31T13:27:37;16.50;99.90
58413;DHT22;44209;52.952;6.790;2023-08-31T13:30:03;16.80;99.90
58413;DHT22;44209;52.952;6.790;2023-08-31T13:32:35;17.20;99.90
58413;DHT22;44209;52.952;6.790;2023-08-31T13:35:01;17.50;99.90
58413;DHT22;44209;52.952;6.790;2023-08-31T13:37:27;17.70;99.90
58413;DHT22;44209;52.952;6.790;2023-08-31T13:39:52;17.90;99.90
58413;DHT22;44209;52.952;6.790;2023-08-31T13:42:20;18.10;99.90
58413;DHT22;44209;52.952;6.790;2023-08-31T13:44:46;18.20;99.90
58413;DHT22;44209;52.952;6.790;2023-08-31T13:47:12;18.30;99.90
58413;DHT22;44209;52.952;6.790;2023-08-31T13:49:38;18.20;99.90
58413;DHT22;44209;52.952;6.790;2023-08-31T13:52:04;18.00;99.90
58413;DHT22;44209;52.952;6.790;2023-08-31T13:54:33;17.90;99.90
58413;DHT22;44209;52.952;6.790;2023-08-31T13:56:58;17.70;99.90
58413;DHT22;44209;52.952;6.790;2023-08-31T13:59:24;17.70;99.90
58413;DHT22;44209;52.952;6.790;2023-08-31T14:01:53;17.60;99.90
58413;DHT22;44209;52.952;6.790;2023-08-31T14:04:19;17.60;99.90
58413;DHT22;44209;52.952;6.790;2023-08-31T14:06:45;17.80;99.90
58413;DHT22;44209;52.952;6.790;2023-08-31T14:09:11;18.00;99.90
58413;DHT22;44209;52.952;6.790;2023-08-31T14:11:37;18.10;99.90
58413;DHT22;44209;52.952;6.790;2023-08-31T14:14:04;18.30;99.90
58413;DHT22;44209;52.952;6.790;2023-08-31T14:16:36;18.40;99.90
58413;DHT22;44209;52.952;6.790;2023-08-31T14:19:03;18.50;99.90
58413;DHT22;44209;52.952;6.790;2023-08-31T14:21:29;18.60;99.90
58413;DHT22;44209;52.952;6.790;2023-08-31T14:23:55;18.60;99.90
58413;DHT22;44209;52.952;6.790;2023-08-31T14:26:22;18.70;99.90
58413;DHT22;44209;52.952;6.790;2023-08-31T14:28:52;18.70;99.90
58413;DHT22;44209;52.952;6.790;2023-08-31T14:31:19;18.60;99.90
58413;DHT22;44209;52.952;6.790;2023-08-31T14:33:45;18.30;99.90
58413;DHT22;44209;52.952;6.790;2023-08-31T14:36:13;18.20;99.90
58413;DHT22;44209;52.952;6.790;2023-08-31T14:38:39;18.00;99.90
58413;DHT22;44209;52.952;6.790;2023-08-31T14:41:05;18.00;99.90
58413;DHT22;44209;52.952;6.790;2023-08-31T14:43:32;18.00;99.90
58413;DHT22;44209;52.952;6.790;2023-08-31T14:45:58;17.90;99.90
58413;DHT22;44209;52.952;6.790;2023-08-31T14:48:29;17.70;99.90
58413;DHT22;44209;52.952;6.790;2023-08-31T14:50:55;17.10;99.90
58413;DHT22;44209;52.952;6.790;2023-08-31T14:53:24;16.40;99.90
58413;DHT22;44209;52.952;6.790;2023-08-31T14:55:50;15.90;99.90
58413;DHT22;44209;52.952;6.790;2023-08-31T14:58:16;15.70;99.90
58413;DHT22;44209;52.952;6.790;2023-08-31T15:00:42;15.50;99.90
58413;DHT22;44209;52.952;6.790;2023-08-31T15:03:07;15.50;99.90
58413;DHT22;44209;52.952;6.790;2023-08-31T15:05:34;15.60;99.90
58413;DHT22;44209;52.952;6.790;2023-08-31T15:08:04;15.60;99.90
58413;DHT22;44209;52.952;6.790;2023-08-31T15:10:30;15.70;99.90
58413;DHT22;44209;52.952;6.790;2023-08-31T15:12:55;15.70;99.90
58413;DHT22;44209;52.952;6.790;2023-08-31T15:15:25;15.80;99.90
58413;DHT22;44209;52.952;6.790;2023-08-31T15:17:51;15.80;99.90
58413;DHT22;44209;52.952;6.790;2023-08-31T15:20:17;15.90;99.90
58413;DHT22;44209;52.952;6.790;2023-08-31T15:22:43;16.20;99.90
58413;DHT22;44209;52.952;6.790;2023-08-31T15:25:09;16.30;99.90
58413;DHT22;44209;52.952;6.790;2023-08-31T15:27:35;16.40;99.90
58413;DHT22;44209;52.952;6.790;2023-08-31T15:30:01;16.50;99.90
58413;DHT22;44209;52.952;6.790;2023-08-31T15:32:27;16.70;99.90
58413;DHT22;44209;52.952;6.790;2023-08-31T15:34:53;16.90;99.90
58413;DHT22;44209;52.952;6.790;2023-08-31T15:37:19;17.10;99.90
58413;DHT22;44209;52.952;6.790;2023-08-31T15:39:45;17.20;99.90
58413;DHT22;44209;52.952;6.790;2023-08-31T15:42:11;17.40;99.90